Lacota, Michigan
Current Conditions -  °F | °C
As of 11:54 AM on Sunday 23 Nov 2014 (Local Time) from KLWA Reporting Station
Broken Clouds Broken Clouds  
Wind Chill: 52°   Ceiling: 5000
Heat Index: 52°   Visibility: 10mi
Dew Point: 46°   Wind: 9mph
Humidity: 81%   Direction: 160°SSE
Pressure: 29.74"   Gusts: NA
Location:  42.41°N, 86.13°W
Report Text: KLWA 231654Z AUTO 16008KT 10SM BKN050 BKN100 11/08 A2974 RMK AO2 T01100079
Loading
Personal Weather Stations






























Interactive Weather Map New forecast layout! Learn more

10-Day Weather Forecast

Advertisements
Track Severe Weather on mobile